sensor_id;sensor_type;location;lat;lon;timestamp;temperature;humidity
59977;DHT22;45837;51.076;3.578;2023-04-06T00:00:30;20.70;47.50
59977;DHT22;45837;51.076;3.578;2023-04-06T00:02:56;20.80;47.90
59977;DHT22;45837;51.076;3.578;2023-04-06T00:05:22;20.80;47.70
59977;DHT22;45837;51.076;3.578;2023-04-06T00:07:48;20.70;47.50
59977;DHT22;45837;51.076;3.578;2023-04-06T00:10:15;20.70;47.60
59977;DHT22;45837;51.076;3.578;2023-04-06T00:12:41;20.70;47.60
59977;DHT22;45837;51.076;3.578;2023-04-06T00:15:07;20.70;47.90
59977;DHT22;45837;51.076;3.578;2023-04-06T00:17:32;20.80;47.60
59977;DHT22;45837;51.076;3.578;2023-04-06T00:20:01;20.70;47.60
59977;DHT22;45837;51.076;3.578;2023-04-06T00:22:27;20.70;47.60
59977;DHT22;45837;51.076;3.578;2023-04-06T00:24:52;20.70;47.70
59977;DHT22;45837;51.076;3.578;2023-04-06T00:27:18;20.70;47.60
59977;DHT22;45837;51.076;3.578;2023-04-06T00:29:44;20.70;47.60
59977;DHT22;45837;51.076;3.578;2023-04-06T00:32:10;20.70;47.70
59977;DHT22;45837;51.076;3.578;2023-04-06T00:34:36;20.60;47.60
59977;DHT22;45837;51.076;3.578;2023-04-06T00:37:01;20.70;47.60
59977;DHT22;45837;51.076;3.578;2023-04-06T00:39:27;20.70;47.80
59977;DHT22;45837;51.076;3.578;2023-04-06T00:41:53;20.60;47.70
59977;DHT22;45837;51.076;3.578;2023-04-06T00:44:19;20.60;47.60
59977;DHT22;45837;51.076;3.578;2023-04-06T00:46:45;20.60;47.40
59977;DHT22;45837;51.076;3.578;2023-04-06T00:49:11;20.60;47.60
59977;DHT22;45837;51.076;3.578;2023-04-06T00:51:36;20.60;47.70
59977;DHT22;45837;51.076;3.578;2023-04-06T00:54:02;20.60;47.80
59977;DHT22;45837;51.076;3.578;2023-04-06T00:56:31;20.60;47.70
59977;DHT22;45837;51.076;3.578;2023-04-06T00:58:57;20.60;47.40
59977;DHT22;45837;51.076;3.578;2023-04-06T01:01:23;20.60;47.90
59977;DHT22;45837;51.076;3.578;2023-04-06T01:03:51;20.60;47.50
59977;DHT22;45837;51.076;3.578;2023-04-06T01:06:19;20.60;47.40
59977;DHT22;45837;51.076;3.578;2023-04-06T01:08:53;20.60;47.60
59977;DHT22;45837;51.076;3.578;2023-04-06T01:11:21;20.60;47.70
59977;DHT22;45837;51.076;3.578;2023-04-06T01:13:48;20.60;47.70
59977;DHT22;45837;51.076;3.578;2023-04-06T01:16:24;20.50;47.50
59977;DHT22;45837;51.076;3.578;2023-04-06T01:19:11;20.60;47.40
59977;DHT22;45837;51.076;3.578;2023-04-06T01:21:40;20.50;47.50
59977;DHT22;45837;51.076;3.578;2023-04-06T01:24:24;20.50;47.40
59977;DHT22;45837;51.076;3.578;2023-04-06T01:27:03;20.50;47.70
59977;DHT22;45837;51.076;3.578;2023-04-06T01:29:52;20.50;47.60
59977;DHT22;45837;51.076;3.578;2023-04-06T01:32:34;20.50;47.50
59977;DHT22;45837;51.076;3.578;2023-04-06T01:35:00;20.50;47.80
59977;DHT22;45837;51.076;3.578;2023-04-06T01:37:25;20.50;47.50
59977;DHT22;45837;51.076;3.578;2023-04-06T01:39:54;20.50;47.50
59977;DHT22;45837;51.076;3.578;2023-04-06T01:42:35;20.50;47.70
59977;DHT22;45837;51.076;3.578;2023-04-06T01:45:01;20.50;47.50
59977;DHT22;45837;51.076;3.578;2023-04-06T01:47:27;20.50;47.50
59977;DHT22;45837;51.076;3.578;2023-04-06T01:49:54;20.40;47.50
59977;DHT22;45837;51.076;3.578;2023-04-06T01:52:20;20.40;47.30
59977;DHT22;45837;51.076;3.578;2023-04-06T01:54:51;20.50;47.40
59977;DHT22;45837;51.076;3.578;2023-04-06T01:57:35;20.50;47.40
59977;DHT22;45837;51.076;3.578;2023-04-06T02:00:10;20.50;47.40
59977;DHT22;45837;51.076;3.578;2023-04-06T02:02:39;20.50;47.30
59977;DHT22;45837;51.076;3.578;2023-04-06T02:05:10;20.40;47.40
59977;DHT22;45837;51.076;3.578;2023-04-06T02:07:36;20.40;47.30
59977;DHT22;45837;51.076;3.578;2023-04-06T02:10:03;20.40;47.60
59977;DHT22;45837;51.076;3.578;2023-04-06T02:12:36;20.40;47.40
59977;DHT22;45837;51.076;3.578;2023-04-06T02:15:03;20.40;47.50
59977;DHT22;45837;51.076;3.578;2023-04-06T02:17:28;20.40;47.80
59977;DHT22;45837;51.076;3.578;2023-04-06T02:19:54;20.40;47.50
59977;DHT22;45837;51.076;3.578;2023-04-06T02:22:20;20.40;47.70
59977;DHT22;45837;51.076;3.578;2023-04-06T02:24:46;20.40;47.60
59977;DHT22;45837;51.076;3.578;2023-04-06T02:27:13;20.40;47.40
59977;DHT22;45837;51.076;3.578;2023-04-06T02:29:38;20.40;47.20
59977;DHT22;45837;51.076;3.578;2023-04-06T02:32:05;20.40;47.30
59977;DHT22;45837;51.076;3.578;2023-04-06T02:34:31;20.40;47.20
59977;DHT22;45837;51.076;3.578;2023-04-06T02:36:57;20.40;47.50
59977;DHT22;45837;51.076;3.578;2023-04-06T02:39:23;20.40;47.40
59977;DHT22;45837;51.076;3.578;2023-04-06T02:41:49;20.40;47.40
59977;DHT22;45837;51.076;3.578;2023-04-06T02:44:19;20.40;47.40
59977;DHT22;45837;51.076;3.578;2023-04-06T02:46:46;20.30;47.60
59977;DHT22;45837;51.076;3.578;2023-04-06T02:49:12;20.40;47.70
59977;DHT22;45837;51.076;3.578;2023-04-06T02:51:37;20.30;47.30
59977;DHT22;45837;51.076;3.578;2023-04-06T02:54:23;20.30;47.30
59977;DHT22;45837;51.076;3.578;2023-04-06T02:56:49;20.30;47.60
59977;DHT22;45837;51.076;3.578;2023-04-06T02:59:15;20.30;47.20
59977;DHT22;45837;51.076;3.578;2023-04-06T03:01:47;20.30;47.50
59977;DHT22;45837;51.076;3.578;2023-04-06T03:04:13;20.30;47.50
59977;DHT22;45837;51.076;3.578;2023-04-06T03:06:38;20.30;47.40
59977;DHT22;45837;51.076;3.578;2023-04-06T03:09:14;20.30;47.70
59977;DHT22;45837;51.076;3.578;2023-04-06T03:11:42;20.30;47.40
59977;DHT22;45837;51.076;3.578;2023-04-06T03:14:08;20.20;47.50
59977;DHT22;45837;51.076;3.578;2023-04-06T03:16:34;20.30;47.40
59977;DHT22;45837;51.076;3.578;2023-04-06T03:19:01;20.20;47.30
59977;DHT22;45837;51.076;3.578;2023-04-06T03:21:30;20.30;47.40
59977;DHT22;45837;51.076;3.578;2023-04-06T03:23:55;20.20;47.50
59977;DHT22;45837;51.076;3.578;2023-04-06T03:26:21;20.20;47.30
59977;DHT22;45837;51.076;3.578;2023-04-06T03:28:49;20.20;47.10
59977;DHT22;45837;51.076;3.578;2023-04-06T03:31:16;20.20;47.40
59977;DHT22;45837;51.076;3.578;2023-04-06T03:34:04;20.20;47.30
59977;DHT22;45837;51.076;3.578;2023-04-06T03:36:33;20.20;47.60
59977;DHT22;45837;51.076;3.578;2023-04-06T03:39:00;20.20;47.30
59977;DHT22;45837;51.076;3.578;2023-04-06T03:41:26;20.20;47.50
59977;DHT22;45837;51.076;3.578;2023-04-06T03:44:12;20.20;47.40
59977;DHT22;45837;51.076;3.578;2023-04-06T03:46:38;20.10;47.60
59977;DHT22;45837;51.076;3.578;2023-04-06T03:49:03;20.10;47.50
59977;DHT22;45837;51.076;3.578;2023-04-06T03:51:29;20.10;47.70
59977;DHT22;45837;51.076;3.578;2023-04-06T03:53:56;20.10;47.40
59977;DHT22;45837;51.076;3.578;2023-04-06T03:56:21;20.10;47.80
59977;DHT22;45837;51.076;3.578;2023-04-06T03:58:47;20.10;47.40
59977;DHT22;45837;51.076;3.578;2023-04-06T04:01:16;20.10;47.50
59977;DHT22;45837;51.076;3.578;2023-04-06T04:03:43;20.10;47.30
59977;DHT22;45837;51.076;3.578;2023-04-06T04:06:08;20.10;47.80
59977;DHT22;45837;51.076;3.578;2023-04-06T04:08:34;20.10;47.40
59977;DHT22;45837;51.076;3.578;2023-04-06T04:11:01;20.10;47.50
59977;DHT22;45837;51.076;3.578;2023-04-06T04:13:27;20.10;47.60
59977;DHT22;45837;51.076;3.578;2023-04-06T04:15:53;20.10;47.60
59977;DHT22;45837;51.076;3.578;2023-04-06T04:18:19;20.10;47.80
59977;DHT22;45837;51.076;3.578;2023-04-06T04:20:44;20.10;47.70
59977;DHT22;45837;51.076;3.578;2023-04-06T04:23:12;20.10;47.70
59977;DHT22;45837;51.076;3.578;2023-04-06T04:25:38;20.10;47.70
59977;DHT22;45837;51.076;3.578;2023-04-06T04:28:04;20.10;47.60
59977;DHT22;45837;51.076;3.578;2023-04-06T04:30:30;20.10;47.80
59977;DHT22;45837;51.076;3.578;2023-04-06T04:32:56;20.10;47.60
59977;DHT22;45837;51.076;3.578;2023-04-06T04:35:23;20.10;48.30
59977;DHT22;45837;51.076;3.578;2023-04-06T04:37:49;20.10;48.10
59977;DHT22;45837;51.076;3.578;2023-04-06T04:40:15;20.10;48.00
59977;DHT22;45837;51.076;3.578;2023-04-06T04:42:49;20.10;48.10
59977;DHT22;45837;51.076;3.578;2023-04-06T04:45:23;20.10;48.10
59977;DHT22;45837;51.076;3.578;2023-04-06T04:47:50;20.10;48.10
59977;DHT22;45837;51.076;3.578;2023-04-06T04:50:17;20.10;48.40
59977;DHT22;45837;51.076;3.578;2023-04-06T04:52:45;20.10;48.20
59977;DHT22;45837;51.076;3.578;2023-04-06T04:55:15;20.10;48.30
59977;DHT22;45837;51.076;3.578;2023-04-06T04:57:44;20.00;48.30
59977;DHT22;45837;51.076;3.578;2023-04-06T05:00:10;20.10;48.50
59977;DHT22;45837;51.076;3.578;2023-04-06T05:02:39;20.00;48.20
59977;DHT22;45837;51.076;3.578;2023-04-06T05:05:26;20.00;48.10
59977;DHT22;45837;51.076;3.578;2023-04-06T05:07:52;20.00;48.50
59977;DHT22;45837;51.076;3.578;2023-04-06T05:10:50;20.00;48.30
59977;DHT22;45837;51.076;3.578;2023-04-06T05:13:17;20.00;48.30
59977;DHT22;45837;51.076;3.578;2023-04-06T05:15:45;20.10;48.30
59977;DHT22;45837;51.076;3.578;2023-04-06T05:18:25;20.00;48.30
59977;DHT22;45837;51.076;3.578;2023-04-06T05:20:50;20.10;48.20
59977;DHT22;45837;51.076;3.578;2023-04-06T05:23:19;20.00;48.30
59977;DHT22;45837;51.076;3.578;2023-04-06T05:25:45;20.00;48.40
59977;DHT22;45837;51.076;3.578;2023-04-06T05:28:16;20.00;48.10
59977;DHT22;45837;51.076;3.578;2023-04-06T05:30:43;20.00;48.30
59977;DHT22;45837;51.076;3.578;2023-04-06T05:33:10;20.00;48.20
59977;DHT22;45837;51.076;3.578;2023-04-06T05:35:56;20.00;48.10
59977;DHT22;45837;51.076;3.578;2023-04-06T05:38:23;20.00;48.10
59977;DHT22;45837;51.076;3.578;2023-04-06T05:40:51;20.00;48.40
59977;DHT22;45837;51.076;3.578;2023-04-06T05:43:20;20.00;48.10
59977;DHT22;45837;51.076;3.578;2023-04-06T05:45:52;20.00;48.30
59977;DHT22;45837;51.076;3.578;2023-04-06T05:48:18;19.90;48.10
59977;DHT22;45837;51.076;3.578;2023-04-06T05:50:47;19.90;48.10
59977;DHT22;45837;51.076;3.578;2023-04-06T05:53:13;20.00;47.90
59977;DHT22;45837;51.076;3.578;2023-04-06T05:55:43;19.90;48.10
59977;DHT22;45837;51.076;3.578;2023-04-06T05:58:16;19.90;48.00
59977;DHT22;45837;51.076;3.578;2023-04-06T06:00:43;19.90;47.90
59977;DHT22;45837;51.076;3.578;2023-04-06T06:03:12;19.90;48.00
59977;DHT22;45837;51.076;3.578;2023-04-06T06:05:41;19.90;47.90
59977;DHT22;45837;51.076;3.578;2023-04-06T06:08:15;19.90;48.00
59977;DHT22;45837;51.076;3.578;2023-04-06T06:10:41;19.90;48.10
59977;DHT22;45837;51.076;3.578;2023-04-06T06:13:10;19.90;48.40
59977;DHT22;45837;51.076;3.578;2023-04-06T06:15:36;19.90;48.60
59977;DHT22;45837;51.076;3.578;2023-04-06T06:18:01;19.90;48.60
59977;DHT22;45837;51.076;3.578;2023-04-06T06:20:28;19.90;49.10
59977;DHT22;45837;51.076;3.578;2023-04-06T06:22:56;20.00;49.30
59977;DHT22;45837;51.076;3.578;2023-04-06T06:25:22;20.00;49.40
59977;DHT22;45837;51.076;3.578;2023-04-06T06:27:48;20.00;49.60
59977;DHT22;45837;51.076;3.578;2023-04-06T06:30:17;20.00;49.70
59977;DHT22;45837;51.076;3.578;2023-04-06T06:32:44;20.00;50.00
59977;DHT22;45837;51.076;3.578;2023-04-06T06:35:10;20.10;50.00
59977;DHT22;45837;51.076;3.578;2023-04-06T06:37:36;20.10;50.20
59977;DHT22;45837;51.076;3.578;2023-04-06T06:40:03;20.10;50.10
59977;DHT22;45837;51.076;3.578;2023-04-06T06:42:31;20.10;50.00
59977;DHT22;45837;51.076;3.578;2023-04-06T06:45:26;20.20;50.00
59977;DHT22;45837;51.076;3.578;2023-04-06T06:47:52;20.20;49.80
59977;DHT22;45837;51.076;3.578;2023-04-06T06:50:17;20.20;50.10
59977;DHT22;45837;51.076;3.578;2023-04-06T06:52:44;20.30;50.40
59977;DHT22;45837;51.076;3.578;2023-04-06T06:55:10;20.40;50.30
59977;DHT22;45837;51.076;3.578;2023-04-06T06:57:36;20.50;50.50
59977;DHT22;45837;51.076;3.578;2023-04-06T07:00:04;20.60;50.20
59977;DHT22;45837;51.076;3.578;2023-04-06T07:02:31;20.60;50.00
59977;DHT22;45837;51.076;3.578;2023-04-06T07:04:57;20.80;50.00
59977;DHT22;45837;51.076;3.578;2023-04-06T07:07:22;20.90;49.60
59977;DHT22;45837;51.076;3.578;2023-04-06T07:09:48;20.90;49.60
59977;DHT22;45837;51.076;3.578;2023-04-06T07:12:14;21.00;49.30
59977;DHT22;45837;51.076;3.578;2023-04-06T07:14:41;21.00;49.10
59977;DHT22;45837;51.076;3.578;2023-04-06T07:17:07;21.10;49.20
59977;DHT22;45837;51.076;3.578;2023-04-06T07:19:32;21.10;49.20
59977;DHT22;45837;51.076;3.578;2023-04-06T07:21:58;21.20;49.10
59977;DHT22;45837;51.076;3.578;2023-04-06T07:24:25;21.10;48.80
59977;DHT22;45837;51.076;3.578;2023-04-06T07:26:52;21.20;48.70
59977;DHT22;45837;51.076;3.578;2023-04-06T07:29:18;21.20;48.70
59977;DHT22;45837;51.076;3.578;2023-04-06T07:31:44;21.20;48.80
59977;DHT22;45837;51.076;3.578;2023-04-06T07:34:11;21.20;48.90
59977;DHT22;45837;51.076;3.578;2023-04-06T07:36:38;21.20;48.90
59977;DHT22;45837;51.076;3.578;2023-04-06T07:39:03;21.20;49.30
59977;DHT22;45837;51.076;3.578;2023-04-06T07:41:30;21.20;49.20
59977;DHT22;45837;51.076;3.578;2023-04-06T07:43:55;21.20;49.20
59977;DHT22;45837;51.076;3.578;2023-04-06T07:46:22;21.20;49.50
59977;DHT22;45837;51.076;3.578;2023-04-06T07:48:48;21.20;49.20
59977;DHT22;45837;51.076;3.578;2023-04-06T07:51:15;21.10;49.30
59977;DHT22;45837;51.076;3.578;2023-04-06T07:53:43;21.10;49.40
59977;DHT22;45837;51.076;3.578;2023-04-06T07:56:09;21.10;49.40
59977;DHT22;45837;51.076;3.578;2023-04-06T07:58:35;21.10;49.80
59977;DHT22;45837;51.076;3.578;2023-04-06T08:01:01;21.10;49.80
59977;DHT22;45837;51.076;3.578;2023-04-06T08:03:27;21.10;49.60
59977;DHT22;45837;51.076;3.578;2023-04-06T08:05:53;21.20;49.90
59977;DHT22;45837;51.076;3.578;2023-04-06T08:08:19;21.30;49.80
59977;DHT22;45837;51.076;3.578;2023-04-06T08:10:47;21.30;49.70
59977;DHT22;45837;51.076;3.578;2023-04-06T08:13:13;21.30;49.50
59977;DHT22;45837;51.076;3.578;2023-04-06T08:15:39;21.30;49.50
59977;DHT22;45837;51.076;3.578;2023-04-06T08:18:05;21.30;49.60
59977;DHT22;45837;51.076;3.578;2023-04-06T08:20:31;21.40;49.90
59977;DHT22;45837;51.076;3.578;2023-04-06T08:22:56;21.30;49.60
59977;DHT22;45837;51.076;3.578;2023-04-06T08:25:22;21.30;49.60
59977;DHT22;45837;51.076;3.578;2023-04-06T08:27:48;21.30;49.70
59977;DHT22;45837;51.076;3.578;2023-04-06T08:30:13;21.30;49.70
59977;DHT22;45837;51.076;3.578;2023-04-06T08:32:41;21.30;49.70
59977;DHT22;45837;51.076;3.578;2023-04-06T08:35:07;21.30;49.90
59977;DHT22;45837;51.076;3.578;2023-04-06T08:37:33;21.20;49.80
59977;DHT22;45837;51.076;3.578;2023-04-06T08:39:59;21.20;50.00
59977;DHT22;45837;51.076;3.578;2023-04-06T08:42:25;21.30;49.90
59977;DHT22;45837;51.076;3.578;2023-04-06T08:44:51;21.30;49.70
59977;DHT22;45837;51.076;3.578;2023-04-06T08:47:17;21.30;49.70
59977;DHT22;45837;51.076;3.578;2023-04-06T08:49:44;21.30;49.80
59977;DHT22;45837;51.076;3.578;2023-04-06T08:52:10;21.30;49.50
59977;DHT22;45837;51.076;3.578;2023-04-06T08:54:36;21.30;49.30
59977;DHT22;45837;51.076;3.578;2023-04-06T08:57:02;21.30;49.40
59977;DHT22;45837;51.076;3.578;2023-04-06T08:59:28;21.30;49.40
59977;DHT22;45837;51.076;3.578;2023-04-06T09:01:54;21.30;49.40
59977;DHT22;45837;51.076;3.578;2023-04-06T09:04:20;21.30;49.20
59977;DHT22;45837;51.076;3.578;2023-04-06T09:06:46;21.30;49.10
59977;DHT22;45837;51.076;3.578;2023-04-06T09:09:12;21.20;48.80
59977;DHT22;45837;51.076;3.578;2023-04-06T09:11:45;21.20;48.50
59977;DHT22;45837;51.076;3.578;2023-04-06T09:14:11;21.10;47.70
59977;DHT22;45837;51.076;3.578;2023-04-06T09:16:40;21.10;47.70
59977;DHT22;45837;51.076;3.578;2023-04-06T09:19:07;21.00;47.20
59977;DHT22;45837;51.076;3.578;2023-04-06T09:21:32;21.00;47.50
59977;DHT22;45837;51.076;3.578;2023-04-06T09:24:01;21.00;47.20
59977;DHT22;45837;51.076;3.578;2023-04-06T09:26:27;21.10;46.90
59977;DHT22;45837;51.076;3.578;2023-04-06T09:28:54;21.00;47.20
59977;DHT22;45837;51.076;3.578;2023-04-06T09:31:29;21.00;47.10
59977;DHT22;45837;51.076;3.578;2023-04-06T09:33:57;21.00;47.10
59977;DHT22;45837;51.076;3.578;2023-04-06T09:36:29;21.00;47.70
59977;DHT22;45837;51.076;3.578;2023-04-06T09:41:25;21.00;48.70
59977;DHT22;45837;51.076;3.578;2023-04-06T09:46:32;21.10;49.10
59977;DHT22;45837;51.076;3.578;2023-04-06T09:49:00;21.10;49.20
59977;DHT22;45837;51.076;3.578;2023-04-06T09:51:25;21.20;49.40
59977;DHT22;45837;51.076;3.578;2023-04-06T09:53:52;21.20;49.50
59977;DHT22;45837;51.076;3.578;2023-04-06T09:56:20;21.30;49.50
59977;DHT22;45837;51.076;3.578;2023-04-06T09:58:47;21.30;49.50
59977;DHT22;45837;51.076;3.578;2023-04-06T10:01:15;21.30;49.50
59977;DHT22;45837;51.076;3.578;2023-04-06T10:06:11;21.40;49.50
59977;DHT22;45837;51.076;3.578;2023-04-06T10:08:37;21.40;49.60
59977;DHT22;45837;51.076;3.578;2023-04-06T10:11:06;21.40;49.80
59977;DHT22;45837;51.076;3.578;2023-04-06T10:13:31;21.40;49.70
59977;DHT22;45837;51.076;3.578;2023-04-06T10:15:57;21.40;49.90
59977;DHT22;45837;51.076;3.578;2023-04-06T10:18:25;21.40;49.80
59977;DHT22;45837;51.076;3.578;2023-04-06T10:20:56;21.50;49.80
59977;DHT22;45837;51.076;3.578;2023-04-06T10:26:04;21.40;50.00
59977;DHT22;45837;51.076;3.578;2023-04-06T10:28:31;21.40;50.50
59977;DHT22;45837;51.076;3.578;2023-04-06T10:30:57;21.40;50.80
59977;DHT22;45837;51.076;3.578;2023-04-06T10:33:24;21.40;51.20
59977;DHT22;45837;51.076;3.578;2023-04-06T10:35:50;21.50;51.50
59977;DHT22;45837;51.076;3.578;2023-04-06T10:38:16;21.50;53.30
59977;DHT22;45837;51.076;3.578;2023-04-06T10:40:46;21.50;53.90
59977;DHT22;45837;51.076;3.578;2023-04-06T10:43:21;21.50;53.80
59977;DHT22;45837;51.076;3.578;2023-04-06T10:45:57;21.50;54.30
59977;DHT22;45837;51.076;3.578;2023-04-06T10:48:23;21.40;54.10
59977;DHT22;45837;51.076;3.578;2023-04-06T10:50:50;21.50;54.50
59977;DHT22;45837;51.076;3.578;2023-04-06T10:53:23;21.50;54.20
59977;DHT22;45837;51.076;3.578;2023-04-06T10:55:49;21.50;55.00
59977;DHT22;45837;51.076;3.578;2023-04-06T10:58:15;21.50;54.30
59977;DHT22;45837;51.076;3.578;2023-04-06T11:00:45;21.40;55.00
59977;DHT22;45837;51.076;3.578;2023-04-06T11:03:11;21.40;54.20
59977;DHT22;45837;51.076;3.578;2023-04-06T11:05:36;21.40;55.00
59977;DHT22;45837;51.076;3.578;2023-04-06T11:08:02;21.30;55.30
59977;DHT22;45837;51.076;3.578;2023-04-06T11:10:28;21.40;54.60
59977;DHT22;45837;51.076;3.578;2023-04-06T11:12:55;21.40;54.10
59977;DHT22;45837;51.076;3.578;2023-04-06T11:15:21;21.40;53.60
59977;DHT22;45837;51.076;3.578;2023-04-06T11:17:47;21.40;53.70
59977;DHT22;45837;51.076;3.578;2023-04-06T11:20:14;21.40;53.70
59977;DHT22;45837;51.076;3.578;2023-04-06T11:22:52;21.40;53.10
59977;DHT22;45837;51.076;3.578;2023-04-06T11:25:18;21.40;52.40
59977;DHT22;45837;51.076;3.578;2023-04-06T11:27:44;21.40;52.70
59977;DHT22;45837;51.076;3.578;2023-04-06T11:30:11;21.30;50.80
59977;DHT22;45837;51.076;3.578;2023-04-06T11:32:40;21.30;50.80
59977;DHT22;45837;51.076;3.578;2023-04-06T11:35:06;21.30;50.60
59977;DHT22;45837;51.076;3.578;2023-04-06T11:37:32;21.30;51.30
59977;DHT22;45837;51.076;3.578;2023-04-06T11:39:58;21.30;51.10
59977;DHT22;45837;51.076;3.578;2023-04-06T11:42:24;21.20;51.20
59977;DHT22;45837;51.076;3.578;2023-04-06T11:44:51;21.20;50.50
59977;DHT22;45837;51.076;3.578;2023-04-06T11:47:18;21.20;50.50
59977;DHT22;45837;51.076;3.578;2023-04-06T11:49:44;21.20;50.70
59977;DHT22;45837;51.076;3.578;2023-04-06T11:52:20;21.10;50.50
59977;DHT22;45837;51.076;3.578;2023-04-06T11:54:47;21.10;50.30
59977;DHT22;45837;51.076;3.578;2023-04-06T11:57:13;21.00;50.20
59977;DHT22;45837;51.076;3.578;2023-04-06T11:59:39;21.00;50.20
59977;DHT22;45837;51.076;3.578;2023-04-06T12:02:04;21.00;51.20
59977;DHT22;45837;51.076;3.578;2023-04-06T12:04:31;21.00;50.30
59977;DHT22;45837;51.076;3.578;2023-04-06T12:06:56;21.00;50.30
59977;DHT22;45837;51.076;3.578;2023-04-06T12:09:22;20.90;50.30
59977;DHT22;45837;51.076;3.578;2023-04-06T12:11:48;21.00;51.00
59977;DHT22;45837;51.076;3.578;2023-04-06T12:14:14;21.00;50.40
59977;DHT22;45837;51.076;3.578;2023-04-06T12:16:40;21.00;50.80
59977;DHT22;45837;51.076;3.578;2023-04-06T12:19:06;20.90;50.10
59977;DHT22;45837;51.076;3.578;2023-04-06T12:21:32;20.90;50.00
59977;DHT22;45837;51.076;3.578;2023-04-06T12:23:58;20.90;50.00
59977;DHT22;45837;51.076;3.578;2023-04-06T12:26:24;20.90;49.60
59977;DHT22;45837;51.076;3.578;2023-04-06T12:28:50;21.00;49.60
59977;DHT22;45837;51.076;3.578;2023-04-06T12:31:16;20.80;49.80
59977;DHT22;45837;51.076;3.578;2023-04-06T12:33:42;20.80;49.80
59977;DHT22;45837;51.076;3.578;2023-04-06T12:36:11;20.80;50.20
59977;DHT22;45837;51.076;3.578;2023-04-06T12:38:38;20.80;49.30
59977;DHT22;45837;51.076;3.578;2023-04-06T12:41:05;20.80;49.70
59977;DHT22;45837;51.076;3.578;2023-04-06T12:43:31;20.80;49.60
59977;DHT22;45837;51.076;3.578;2023-04-06T12:45:56;20.80;50.10
59977;DHT22;45837;51.076;3.578;2023-04-06T12:48:22;20.80;50.00
59977;DHT22;45837;51.076;3.578;2023-04-06T12:50:54;20.80;50.20
59977;DHT22;45837;51.076;3.578;2023-04-06T12:53:21;20.80;49.20
59977;DHT22;45837;51.076;3.578;2023-04-06T12:55:46;20.80;50.70
59977;DHT22;45837;51.076;3.578;2023-04-06T12:58:12;20.80;50.00
59977;DHT22;45837;51.076;3.578;2023-04-06T13:00:38;20.70;50.00
59977;DHT22;45837;51.076;3.578;2023-04-06T13:03:03;20.70;50.10
59977;DHT22;45837;51.076;3.578;2023-04-06T13:05:29;20.70;50.10
59977;DHT22;45837;51.076;3.578;2023-04-06T13:07:55;20.70;49.50
59977;DHT22;45837;51.076;3.578;2023-04-06T13:10:21;20.10;49.60
59977;DHT22;45837;51.076;3.578;2023-04-06T13:12:46;20.70;50.60
59977;DHT22;45837;51.076;3.578;2023-04-06T13:15:12;20.70;50.40
59977;DHT22;45837;51.076;3.578;2023-04-06T13:17:38;18.50;49.60
59977;DHT22;45837;51.076;3.578;2023-04-06T13:20:04;20.70;50.50
59977;DHT22;45837;51.076;3.578;2023-04-06T13:22:31;20.60;49.50
59977;DHT22;45837;51.076;3.578;2023-04-06T13:24:57;20.60;49.70
59977;DHT22;45837;51.076;3.578;2023-04-06T13:27:22;20.60;50.30
59977;DHT22;45837;51.076;3.578;2023-04-06T13:29:48;20.60;50.20
59977;DHT22;45837;51.076;3.578;2023-04-06T13:32:14;18.50;49.20
59977;DHT22;45837;51.076;3.578;2023-04-06T13:34:40;20.60;50.00
59977;DHT22;45837;51.076;3.578;2023-04-06T13:37:12;20.60;50.00
59977;DHT22;45837;51.076;3.578;2023-04-06T13:39:38;20.60;49.70
59977;DHT22;45837;51.076;3.578;2023-04-06T13:42:04;20.50;49.80
59977;DHT22;45837;51.076;3.578;2023-04-06T13:44:30;20.50;50.20
59977;DHT22;45837;51.076;3.578;2023-04-06T13:46:56;20.60;50.40
59977;DHT22;45837;51.076;3.578;2023-04-06T13:49:22;20.50;49.80
59977;DHT22;45837;51.076;3.578;2023-04-06T13:51:48;20.50;50.10
59977;DHT22;45837;51.076;3.578;2023-04-06T13:54:13;20.30;50.20
59977;DHT22;45837;51.076;3.578;2023-04-06T13:56:39;20.50;50.20
59977;DHT22;45837;51.076;3.578;2023-04-06T13:59:05;20.50;50.70
59977;DHT22;45837;51.076;3.578;2023-04-06T14:01:31;20.50;50.00
59977;DHT22;45837;51.076;3.578;2023-04-06T14:03:56;20.50;50.50
59977;DHT22;45837;51.076;3.578;2023-04-06T14:06:22;20.50;50.70
59977;DHT22;45837;51.076;3.578;2023-04-06T14:08:48;20.50;50.40
59977;DHT22;45837;51.076;3.578;2023-04-06T14:11:13;20.40;50.40
59977;DHT22;45837;51.076;3.578;2023-04-06T14:13:40;20.50;50.30
59977;DHT22;45837;51.076;3.578;2023-04-06T14:16:06;20.40;49.90
59977;DHT22;45837;51.076;3.578;2023-04-06T14:18:32;20.40;49.90
59977;DHT22;45837;51.076;3.578;2023-04-06T14:20:59;20.40;50.40
59977;DHT22;45837;51.076;3.578;2023-04-06T14:23:28;20.40;50.20
59977;DHT22;45837;51.076;3.578;2023-04-06T14:26:03;20.40;50.10
59977;DHT22;45837;51.076;3.578;2023-04-06T14:28:30;20.40;50.50
59977;DHT22;45837;51.076;3.578;2023-04-06T14:30:56;20.40;50.30
59977;DHT22;45837;51.076;3.578;2023-04-06T14:33:22;20.40;50.80
59977;DHT22;45837;51.076;3.578;2023-04-06T14:35:47;20.40;51.40
59977;DHT22;45837;51.076;3.578;2023-04-06T14:38:13;20.40;51.10
59977;DHT22;45837;51.076;3.578;2023-04-06T14:40:39;20.40;50.90
59977;DHT22;45837;51.076;3.578;2023-04-06T14:43:04;20.40;51.40
59977;DHT22;45837;51.076;3.578;2023-04-06T14:45:32;20.40;50.90
59977;DHT22;45837;51.076;3.578;2023-04-06T14:47:58;20.30;50.60
59977;DHT22;45837;51.076;3.578;2023-04-06T14:50:24;20.30;50.80
59977;DHT22;45837;51.076;3.578;2023-04-06T14:52:49;20.30;51.30
59977;DHT22;45837;51.076;3.578;2023-04-06T14:55:16;20.30;50.80
59977;DHT22;45837;51.076;3.578;2023-04-06T14:57:42;20.30;50.90
59977;DHT22;45837;51.076;3.578;2023-04-06T15:00:07;20.30;51.20
59977;DHT22;45837;51.076;3.578;2023-04-06T15:02:34;20.30;50.80
59977;DHT22;45837;51.076;3.578;2023-04-06T15:05:00;20.20;51.30
59977;DHT22;45837;51.076;3.578;2023-04-06T15:07:26;20.20;51.20
59977;DHT22;45837;51.076;3.578;2023-04-06T15:09:51;20.30;51.70
59977;DHT22;45837;51.076;3.578;2023-04-06T15:12:17;20.20;51.60
59977;DHT22;45837;51.076;3.578;2023-04-06T15:14:43;20.20;51.60
59977;DHT22;45837;51.076;3.578;2023-04-06T15:17:08;20.20;52.10
59977;DHT22;45837;51.076;3.578;2023-04-06T15:19:34;20.20;51.50
59977;DHT22;45837;51.076;3.578;2023-04-06T15:22:00;20.20;51.80
59977;DHT22;45837;51.076;3.578;2023-04-06T15:24:26;20.20;52.10
59977;DHT22;45837;51.076;3.578;2023-04-06T15:26:51;20.20;51.80
59977;DHT22;45837;51.076;3.578;2023-04-06T15:29:17;20.20;51.90
59977;DHT22;45837;51.076;3.578;2023-04-06T15:31:43;20.20;52.10
59977;DHT22;45837;51.076;3.578;2023-04-06T15:34:08;20.20;52.10
59977;DHT22;45837;51.076;3.578;2023-04-06T15:36:34;20.20;52.20
59977;DHT22;45837;51.076;3.578;2023-04-06T15:39:00;20.10;51.80
59977;DHT22;45837;51.076;3.578;2023-04-06T15:41:26;20.20;52.20